Time;durP1;ratioP1;P1;durP2;ratioP2;P2;SDS_P1;SDS_P2;PMS_P1;PMS_P2;Temp;Humidity;BMP_temperature;BMP_pressure;BME280_temperature;BME280_humidity;BME280_pressure;Samples;Min_cycle;Max_cycle;Signal;HPM_P1;HPM_P2
2023/06/08 00:02:10;;;;;;;9.60;9.20;;;16.30;99.90;;;;;;5114369;27;20972;-66
2023/06/08 00:04:40;;;;;;;10.90;10.50;;;16.30;99.90;;;;;;5115450;27;20874;-67
2023/06/08 00:07:10;;;;;;;10.77;10.37;;;16.30;99.90;;;;;;5114493;27;20473;-67
2023/06/08 00:09:37;;;;;;;10.27;9.87;;;16.30;99.90;;;;;;5097634;28;20470;-68
2023/06/08 00:12:05;;;;;;;11.90;11.27;;;16.30;99.90;;;;;;5105954;28;20464;-67
2023/06/08 00:14:34;;;;;;;11.63;10.90;;;16.30;99.90;;;;;;5122546;27;20503;-67
2023/06/08 00:17:03;;;;;;;13.00;12.10;;;16.30;99.90;;;;;;5119277;28;20915;-67
2023/06/08 00:19:30;;;;;;;10.30;9.90;;;16.30;99.90;;;;;;5108116;28;20956;-67
2023/06/08 00:24:38;;;;;;;11.70;11.20;;;16.30;99.90;;;;;;5110266;28;20538;-67
2023/06/08 00:27:06;;;;;;;13.50;12.70;;;16.30;99.90;;;;;;5115510;28;20464;-68
2023/06/08 00:29:33;;;;;;;11.20;10.70;;;16.30;99.90;;;;;;5104629;28;20911;-66
2023/06/08 00:32:02;;;;;;;11.63;10.90;;;16.30;99.90;;;;;;5101347;28;20461;-67
2023/06/08 00:34:30;;;;;;;10.67;10.20;;;16.20;99.90;;;;;;5108031;28;20839;-66
2023/06/08 00:36:58;;;;;;;8.57;8.27;;;16.30;99.90;;;;;;5094968;28;20469;-67
2023/06/08 00:39:25;;;;;;;8.70;8.40;;;16.30;99.90;;;;;;5123700;28;20993;-67
2023/06/08 00:41:52;;;;;;;9.53;9.13;;;16.30;99.90;;;;;;5115366;28;20526;-68
2023/06/08 00:44:20;;;;;;;9.30;8.90;;;16.30;99.90;;;;;;5115000;28;20519;-68
2023/06/08 00:46:49;;;;;;;7.90;7.60;;;16.30;99.90;;;;;;5110063;28;20463;-66
2023/06/08 00:49:19;;;;;;;7.43;7.23;;;16.30;99.90;;;;;;5102080;28;20458;-67
2023/06/08 00:51:47;;;;;;;9.17;8.50;;;16.30;99.90;;;;;;5103699;28;20481;-68
2023/06/08 00:54:17;;;;;;;6.93;6.63;;;16.30;99.90;;;;;;5096464;28;20471;-68
2023/06/08 00:56:48;;;;;;;6.10;5.90;;;16.30;99.90;;;;;;5107924;28;20457;-67
2023/06/08 00:59:15;;;;;;;8.10;7.70;;;16.30;99.90;;;;;;5117333;28;20485;-68
2023/06/08 01:01:42;;;;;;;32.60;8.00;;;16.30;99.90;;;;;;5090950;28;20816;-68
2023/06/08 01:04:11;;;;;;;7.07;6.77;;;16.30;99.90;;;;;;5101675;28;20452;-68
2023/06/08 01:06:44;;;;;;;8.07;7.67;;;16.30;99.90;;;;;;5108726;28;20555;-67
2023/06/08 01:09:20;;;;;;;6.00;5.80;;;16.30;99.90;;;;;;5108128;28;20490;-66
2023/06/08 01:11:58;;;;;;;6.83;6.53;;;16.30;99.90;;;;;;5114720;28;20467;-67
2023/06/08 01:14:33;;;;;;;7.07;6.77;;;16.30;99.90;;;;;;5114140;28;20462;-66
2023/06/08 01:17:03;;;;;;;6.00;5.80;;;16.30;99.90;;;;;;5107648;28;20483;-66
2023/06/08 01:19:43;;;;;;;11.23;10.53;;;16.30;99.90;;;;;;5099174;28;20485;-67
2023/06/08 01:22:20;;;;;;;7.10;6.80;;;16.30;99.90;;;;;;5102571;28;20469;-66
2023/06/08 01:24:52;;;;;;;6.17;5.97;;;16.20;99.90;;;;;;5106319;27;20866;-67
2023/06/08 01:27:20;;;;;;;6.57;6.37;;;16.20;99.90;;;;;;5125103;27;20460;-67
2023/06/08 01:29:48;;;;;;;8.07;7.77;;;16.20;99.90;;;;;;5121042;27;21153;-67
2023/06/08 01:32:15;;;;;;;6.13;5.93;;;16.20;99.90;;;;;;5101724;27;20491;-67
2023/06/08 01:34:42;;;;;;;6.10;5.90;;;16.10;99.90;;;;;;5119808;27;20479;-67
2023/06/08 01:37:18;;;;;;;7.93;7.60;;;16.10;99.90;;;;;;5122226;27;20465;-67
2023/06/08 01:39:52;;;;;;;6.57;6.37;;;16.00;99.90;;;;;;5109412;27;20485;-67
2023/06/08 01:42:21;;;;;;;6.90;6.70;;;15.90;99.90;;;;;;5109645;27;20449;-67
2023/06/08 01:44:56;;;;;;;6.97;6.77;;;16.00;99.90;;;;;;5125455;27;20455;-66
2023/06/08 01:47:26;;;;;;;6.70;6.50;;;16.00;99.90;;;;;;5112086;27;20467;-66
2023/06/08 01:49:57;;;;;;;7.00;6.80;;;15.90;99.90;;;;;;5102543;27;20468;-67
2023/06/08 01:52:24;;;;;;;6.20;6.00;;;15.80;99.90;;;;;;5121197;27;20522;-66
2023/06/08 01:54:52;;;;;;;6.73;6.53;;;15.90;99.90;;;;;;5109716;27;20462;-67
2023/06/08 01:57:19;;;;;;;6.77;6.37;;;15.80;99.90;;;;;;5118964;27;20939;-67
2023/06/08 01:59:46;;;;;;;6.17;5.97;;;15.70;99.90;;;;;;5108343;27;20480;-66
2023/06/08 02:02:13;;;;;;;7.03;6.83;;;15.60;99.90;;;;;;5107899;27;20601;-67
2023/06/08 02:04:40;;;;;;;6.20;6.00;;;15.50;99.90;;;;;;5109900;27;20864;-66
2023/06/08 02:07:09;;;;;;;6.57;6.37;;;15.50;99.90;;;;;;5117442;27;20485;-66
2023/06/08 02:09:35;;;;;;;7.37;7.13;;;15.50;99.90;;;;;;5121848;27;20495;-67
2023/06/08 02:12:08;;;;;;;6.67;6.47;;;15.40;99.90;;;;;;5109356;27;20480;-68
2023/06/08 02:14:35;;;;;;;6.90;6.70;;;15.30;99.90;;;;;;5100906;27;20679;-67
2023/06/08 02:17:03;;;;;;;6.60;6.40;;;15.30;99.90;;;;;;5106221;27;20483;-67
2023/06/08 02:19:31;;;;;;;7.20;6.90;;;15.40;99.90;;;;;;5118042;27;20534;-66
2023/06/08 02:22:00;;;;;;;6.30;6.10;;;15.30;99.90;;;;;;5106474;27;20935;-67
2023/06/08 02:24:26;;;;;;;7.40;6.90;;;15.30;99.90;;;;;;5111737;27;20539;-67
2023/06/08 02:26:54;;;;;;;6.33;6.13;;;15.30;99.90;;;;;;5113569;27;20460;-66
2023/06/08 02:29:23;;;;;;;5.60;5.40;;;15.20;99.90;;;;;;5125910;27;20449;-67
2023/06/08 02:31:50;;;;;;;6.30;6.10;;;15.10;99.90;;;;;;5104589;27;20461;-66
2023/06/08 02:34:17;;;;;;;5.50;5.30;;;15.10;99.90;;;;;;5104175;27;20535;-66
2023/06/08 02:36:47;;;;;;;5.80;5.60;;;15.10;99.90;;;;;;5105584;27;20462;-67
2023/06/08 02:39:15;;;;;;;7.20;6.90;;;15.00;99.90;;;;;;5102828;27;20453;-66
2023/06/08 02:41:42;;;;;;;5.20;5.00;;;15.00;99.90;;;;;;5123639;27;20488;-66
2023/06/08 02:44:09;;;;;;;7.03;6.73;;;14.90;99.90;;;;;;5117588;27;20455;-68
2023/06/08 02:46:39;;;;;;;6.67;6.33;;;14.90;99.90;;;;;;5108461;27;20831;-67
2023/06/08 02:49:06;;;;;;;5.60;5.40;;;14.90;99.90;;;;;;5106923;27;20810;-67
2023/06/08 02:51:34;;;;;;;8.20;7.60;;;15.00;99.90;;;;;;5114866;27;20469;-67
2023/06/08 02:54:01;;;;;;;6.53;6.23;;;15.00;99.90;;;;;;5103070;27;21061;-67
2023/06/08 02:56:28;;;;;;;6.20;5.70;;;15.10;99.90;;;;;;5098570;27;20464;-69
2023/06/08 02:58:56;;;;;;;7.13;6.90;;;15.10;99.90;;;;;;5117036;27;20465;-67
2023/06/08 03:01:23;;;;;;;5.83;5.53;;;15.10;99.90;;;;;;5104001;27;20484;-68
2023/06/08 03:03:52;;;;;;;5.17;4.97;;;15.20;99.90;;;;;;5108802;27;20493;-66
2023/06/08 03:06:20;;;;;;;6.83;6.43;;;15.20;99.90;;;;;;5113256;27;20542;-67
2023/06/08 03:08:48;;;;;;;7.40;6.70;;;15.20;99.90;;;;;;5105187;27;20468;-67
2023/06/08 03:11:16;;;;;;;4.80;4.70;;;15.10;99.90;;;;;;5118543;27;20488;-68
2023/06/08 03:13:43;;;;;;;6.93;6.03;;;15.10;99.90;;;;;;5118814;27;20491;-66
2023/06/08 03:16:12;;;;;;;5.53;5.33;;;15.10;99.90;;;;;;5120886;27;20591;-67
2023/06/08 03:18:39;;;;;;;5.57;5.27;;;15.00;99.90;;;;;;5096911;27;20497;-68
2023/06/08 03:21:08;;;;;;;4.60;4.50;;;14.90;99.90;;;;;;5117588;27;20557;-68
2023/06/08 03:23:38;;;;;;;5.80;5.60;;;14.90;99.90;;;;;;5109757;27;20558;-68
2023/06/08 03:26:05;;;;;;;7.67;7.27;;;14.80;99.90;;;;;;5122189;27;20460;-68
2023/06/08 03:28:32;;;;;;;5.50;5.30;;;14.90;99.90;;;;;;5118223;27;20874;-68
2023/06/08 03:31:00;;;;;;;27.93;6.30;;;14.90;99.90;;;;;;5090041;27;20496;-67
2023/06/08 03:33:27;;;;;;;5.33;5.13;;;14.80;99.90;;;;;;5101922;27;20903;-67
2023/06/08 03:35:54;;;;;;;4.70;4.60;;;14.90;99.90;;;;;;5098686;28;21008;-67
2023/06/08 03:38:22;;;;;;;6.37;6.03;;;14.90;99.90;;;;;;5094849;28;20461;-67
2023/06/08 03:40:51;;;;;;;5.50;5.23;;;14.90;99.90;;;;;;5116975;27;20521;-68
2023/06/08 03:43:17;;;;;;;4.50;4.40;;;14.90;99.90;;;;;;5110183;27;20480;-68
2023/06/08 03:45:45;;;;;;;6.47;6.07;;;15.00;99.90;;;;;;5098701;28;20543;-67
2023/06/08 03:48:11;;;;;;;5.47;5.27;;;15.00;99.90;;;;;;5108553;27;20955;-69
2023/06/08 03:50:38;;;;;;;4.30;4.20;;;14.90;99.90;;;;;;5103556;27;20888;-67
2023/06/08 03:53:06;;;;;;;5.57;5.27;;;14.90;99.90;;;;;;5117958;27;20457;-67
2023/06/08 03:55:35;;;;;;;4.80;4.63;;;14.90;99.90;;;;;;5102549;27;20964;-67
2023/06/08 03:58:02;;;;;;;4.90;4.70;;;14.80;99.90;;;;;;5104142;27;20560;-68
2023/06/08 04:00:30;;;;;;;5.33;5.13;;;14.80;99.90;;;;;;5118419;27;20473;-68
2023/06/08 04:02:57;;;;;;;4.70;4.60;;;14.80;99.90;;;;;;5108826;28;20465;-69
2023/06/08 04:05:25;;;;;;;4.70;4.60;;;14.80;99.90;;;;;;5096338;27;20523;-67
2023/06/08 04:07:52;;;;;;;5.00;4.80;;;14.80;99.90;;;;;;5107957;27;20458;-67
2023/06/08 04:10:19;;;;;;;7.07;6.37;;;14.80;99.90;;;;;;5101084;27;20464;-68
2023/06/08 04:12:48;;;;;;;4.57;4.30;;;14.90;99.90;;;;;;5118851;27;21025;-68
2023/06/08 04:15:16;;;;;;;9.90;7.50;;;14.90;99.90;;;;;;5106004;27;20558;-68
2023/06/08 04:17:46;;;;;;;5.13;4.93;;;14.90;99.90;;;;;;5119709;28;20464;-67
2023/06/08 04:20:15;;;;;;;5.00;4.80;;;14.90;99.90;;;;;;5095538;28;20606;-68
2023/06/08 04:22:42;;;;;;;4.60;4.40;;;14.90;99.90;;;;;;5092945;28;20450;-67
2023/06/08 04:25:10;;;;;;;4.40;4.30;;;14.90;99.90;;;;;;5111874;28;20927;-67
2023/06/08 04:27:37;;;;;;;15.10;11.43;;;15.00;99.90;;;;;;5103288;28;21071;-67
2023/06/08 04:30:07;;;;;;;4.97;4.77;;;15.00;99.90;;;;;;5118375;28;20520;-68
2023/06/08 04:32:36;;;;;;;5.00;4.80;;;15.10;99.90;;;;;;5106521;28;20453;-68
2023/06/08 04:35:04;;;;;;;5.20;4.90;;;15.10;99.90;;;;;;5110828;28;20476;-68
2023/06/08 04:37:32;;;;;;;6.23;6.00;;;15.10;99.90;;;;;;5096863;28;20493;-67
2023/06/08 04:40:01;;;;;;;6.67;6.40;;;15.20;99.90;;;;;;5104775;28;20465;-67
2023/06/08 04:42:29;;;;;;;6.83;6.53;;;15.20;99.90;;;;;;5106593;28;20476;-68
2023/06/08 04:45:00;;;;;;;5.93;5.63;;;15.20;99.90;;;;;;5120029;28;20488;-68
2023/06/08 04:47:31;;;;;;;6.90;6.50;;;15.20;99.90;;;;;;5100029;28;20824;-67
2023/06/08 04:49:58;;;;;;;5.93;5.63;;;15.30;99.90;;;;;;5097666;28;20858;-67
2023/06/08 04:52:26;;;;;;;10.30;8.30;;;15.30;99.90;;;;;;5101132;28;20456;-68
2023/06/08 04:54:53;;;;;;;5.80;5.60;;;15.40;99.90;;;;;;5105178;28;20521;-69
2023/06/08 04:57:22;;;;;;;6.27;5.77;;;15.50;99.90;;;;;;5103426;28;20452;-67
2023/06/08 04:59:49;;;;;;;5.63;5.43;;;15.50;99.90;;;;;;5114210;27;20584;-66
2023/06/08 05:02:17;;;;;;;10.10;9.30;;;15.50;99.90;;;;;;5100927;27;20483;-68
2023/06/08 05:04:45;;;;;;;7.33;6.93;;;15.60;99.90;;;;;;5097808;27;20476;-67
2023/06/08 05:07:13;;;;;;;6.50;6.20;;;15.70;99.90;;;;;;5103113;27;20466;-67
2023/06/08 05:09:41;;;;;;;9.17;8.50;;;15.80;99.90;;;;;;5116891;27;20922;-68
2023/06/08 05:12:08;;;;;;;6.90;6.67;;;15.80;99.90;;;;;;5123240;27;20561;-66
2023/06/08 05:14:35;;;;;;;7.93;7.60;;;15.90;99.90;;;;;;5093088;27;20452;-67
2023/06/08 05:17:02;;;;;;;7.37;6.97;;;16.00;99.90;;;;;;5121074;27;20486;-67
2023/06/08 05:19:30;;;;;;;9.40;9.00;;;16.00;99.90;;;;;;5097585;27;20514;-68
2023/06/08 05:21:58;;;;;;;13.83;9.07;;;16.00;99.90;;;;;;5104673;27;20831;-67
2023/06/08 05:24:27;;;;;;;12.20;11.07;;;16.10;99.90;;;;;;5097481;27;20501;-68
2023/06/08 05:26:54;;;;;;;10.23;9.73;;;16.20;99.90;;;;;;5098494;27;20469;-67
2023/06/08 05:29:21;;;;;;;9.73;9.33;;;16.20;99.90;;;;;;5102431;27;20460;-67
2023/06/08 05:31:49;;;;;;;11.10;10.07;;;16.20;99.90;;;;;;5096641;27;20464;-68
2023/06/08 05:34:15;;;;;;;9.83;9.33;;;16.30;99.90;;;;;;5105805;27;20461;-67
2023/06/08 05:36:43;;;;;;;24.37;12.90;;;16.40;99.90;;;;;;5101683;28;20461;-67
2023/06/08 05:39:11;;;;;;;12.03;11.00;;;16.40;99.90;;;;;;5101230;27;20448;-67
2023/06/08 05:41:40;;;;;;;13.97;12.60;;;16.60;99.90;;;;;;5092841;27;20485;-67
2023/06/08 05:44:07;;;;;;;11.40;10.80;;;16.70;99.90;;;;;;5096399;27;20800;-67
2023/06/08 05:46:34;;;;;;;13.33;12.03;;;16.70;99.90;;;;;;5102362;27;20474;-69
2023/06/08 05:49:01;;;;;;;10.80;10.20;;;16.80;99.90;;;;;;5106320;27;20460;-67
2023/06/08 05:51:27;;;;;;;14.47;13.57;;;16.90;99.90;;;;;;5098348;27;20462;-67
2023/06/08 05:53:54;;;;;;;11.13;10.63;;;17.00;99.90;;;;;;5098313;27;20460;-67
2023/06/08 05:56:23;;;;;;;11.00;10.50;;;16.90;99.90;;;;;;5098018;27;21152;-67
2023/06/08 05:58:50;;;;;;;16.03;14.93;;;17.10;99.90;;;;;;5106983;27;20453;-68
2023/06/08 06:01:19;;;;;;;13.30;12.50;;;17.30;99.90;;;;;;5098878;27;20484;-67
2023/06/08 06:03:46;;;;;;;12.17;11.67;;;17.40;99.90;;;;;;5093270;27;20544;-68
2023/06/08 06:06:13;;;;;;;15.03;13.60;;;17.50;99.90;;;;;;5098872;27;20464;-68
2023/06/08 06:08:40;;;;;;;14.37;13.37;;;17.50;99.90;;;;;;5100099;27;20450;-67
2023/06/08 06:11:08;;;;;;;14.33;13.40;;;17.50;99.90;;;;;;5106993;27;20522;-68
2023/06/08 06:13:38;;;;;;;11.70;11.20;;;17.50;99.90;;;;;;5097250;27;20560;-67
2023/06/08 06:16:05;;;;;;;12.30;11.70;;;17.60;99.90;;;;;;5101895;27;20991;-67
2023/06/08 06:18:32;;;;;;;15.67;14.77;;;17.80;99.90;;;;;;5103451;27;20657;-67
2023/06/08 06:20:59;;;;;;;15.17;14.17;;;17.90;99.90;;;;;;5095970;27;20495;-67
2023/06/08 06:23:25;;;;;;;12.10;11.60;;;18.00;99.90;;;;;;5098867;27;20484;-68
2023/06/08 06:25:53;;;;;;;14.50;13.50;;;18.10;99.90;;;;;;5095737;27;20518;-68
2023/06/08 06:28:21;;;;;;;14.93;14.10;;;18.20;99.90;;;;;;5111790;27;20539;-67
2023/06/08 06:30:50;;;;;;;12.57;12.07;;;18.30;99.90;;;;;;5098790;27;20560;-68
2023/06/08 06:33:17;;;;;;;14.50;13.70;;;18.50;99.90;;;;;;5111089;27;20532;-68
2023/06/08 06:35:44;;;;;;;14.23;13.43;;;18.50;99.90;;;;;;5120123;27;20477;-67
2023/06/08 06:38:13;;;;;;;16.20;15.13;;;18.30;99.90;;;;;;5098562;27;20462;-66
2023/06/08 06:40:41;;;;;;;12.47;11.97;;;18.40;99.90;;;;;;5117651;27;20503;-66
2023/06/08 06:43:08;;;;;;;14.90;14.10;;;18.60;99.90;;;;;;5115587;27;20484;-67
2023/06/08 06:45:37;;;;;;;12.17;11.67;;;18.80;99.90;;;;;;5116368;27;20956;-68
2023/06/08 06:48:06;;;;;;;14.27;13.67;;;18.90;99.90;;;;;;5104556;27;20473;-67
2023/06/08 06:50:34;;;;;;;14.53;13.83;;;19.00;99.90;;;;;;5093664;27;20892;-67
2023/06/08 06:53:02;;;;;;;13.80;13.20;;;19.00;99.90;;;;;;5114636;27;20831;-67
2023/06/08 06:55:34;;;;;;;12.47;11.97;;;19.10;99.90;;;;;;5102068;28;20460;-67
2023/06/08 06:58:02;;;;;;;12.43;11.93;;;19.10;99.90;;;;;;5115123;27;20468;-67
2023/06/08 07:00:32;;;;;;;13.73;13.13;;;19.30;99.90;;;;;;5117504;27;20453;-68
2023/06/08 07:02:59;;;;;;;12.30;11.80;;;19.30;99.90;;;;;;5110382;27;20575;-68
2023/06/08 07:05:28;;;;;;;14.13;13.43;;;19.40;99.90;;;;;;5091147;27;20547;-68
2023/06/08 07:07:55;;;;;;;13.67;12.87;;;19.40;99.90;;;;;;5101539;27;20465;-68
2023/06/08 07:10:23;;;;;;;15.00;14.10;;;19.50;99.90;;;;;;5091789;28;20454;-67
2023/06/08 07:12:50;;;;;;;13.40;12.80;;;19.60;99.90;;;;;;5107836;27;20779;-68
2023/06/08 07:15:18;;;;;;;14.33;13.53;;;19.60;99.90;;;;;;5097144;27;20480;-69
2023/06/08 07:17:46;;;;;;;12.33;11.83;;;19.80;99.90;;;;;;5098612;27;20813;-67
2023/06/08 07:20:13;;;;;;;14.90;14.00;;;20.10;99.90;;;;;;5099619;27;20456;-68
2023/06/08 07:22:41;;;;;;;15.40;14.50;;;20.20;99.90;;;;;;5092984;27;20585;-68
2023/06/08 07:25:09;;;;;;;12.77;12.23;;;20.20;99.90;;;;;;5097965;27;20466;-69
2023/06/08 07:27:36;;;;;;;12.40;11.90;;;20.30;99.90;;;;;;5108086;27;20453;-68
2023/06/08 07:30:04;;;;;;;12.60;12.10;;;20.40;99.90;;;;;;5113815;27;21018;-69
2023/06/08 07:32:32;;;;;;;15.03;14.13;;;20.50;99.90;;;;;;5104137;27;20461;-68
2023/06/08 07:34:59;;;;;;;12.53;12.03;;;20.40;99.90;;;;;;5111991;27;20480;-68
2023/06/08 07:37:26;;;;;;;20.60;13.13;;;20.20;99.90;;;;;;5105876;27;20469;-68
2023/06/08 07:39:54;;;;;;;15.90;14.93;;;20.30;99.90;;;;;;5104689;27;20465;-68
2023/06/08 07:42:21;;;;;;;14.70;13.90;;;20.40;99.90;;;;;;5094821;28;21152;-68
2023/06/08 07:44:48;;;;;;;13.77;13.17;;;20.60;99.90;;;;;;5100661;27;20465;-69
2023/06/08 07:47:17;;;;;;;13.80;13.20;;;20.60;99.90;;;;;;5102244;28;20470;-68
2023/06/08 07:49:43;;;;;;;13.60;13.00;;;20.90;99.90;;;;;;5098224;27;20454;-69
2023/06/08 07:52:11;;;;;;;13.90;13.07;;;20.90;99.90;;;;;;5100352;27;20455;-69
2023/06/08 07:54:38;;;;;;;13.13;12.63;;;21.10;99.90;;;;;;5093081;28;20454;-69
2023/06/08 07:57:06;;;;;;;15.13;14.40;;;21.40;99.90;;;;;;5098749;28;20488;-69
2023/06/08 07:59:33;;;;;;;14.03;13.43;;;21.50;99.90;;;;;;5108223;28;20544;-69
2023/06/08 08:02:01;;;;;;;23.13;15.40;;;21.50;99.90;;;;;;5110375;27;20479;-69
2023/06/08 08:04:28;;;;;;;13.80;13.20;;;22.00;99.90;;;;;;5106192;27;20518;-69
2023/06/08 08:06:55;;;;;;;13.40;12.90;;;22.40;99.90;;;;;;5093679;27;20885;-69
2023/06/08 08:09:23;;;;;;;17.57;16.67;;;23.10;99.90;;;;;;5091704;27;20553;-68
2023/06/08 08:11:50;;;;;;;15.30;14.60;;;23.70;99.90;;;;;;5109920;27;20468;-69
2023/06/08 08:14:19;;;;;;;14.07;13.47;;;23.90;99.90;;;;;;5101728;27;20505;-68
2023/06/08 08:16:46;;;;;;;15.33;14.50;;;24.40;99.90;;;;;;5100724;28;20493;-68
2023/06/08 08:19:13;;;;;;;15.10;14.40;;;24.10;99.90;;;;;;5108708;28;20461;-68
2023/06/08 08:21:40;;;;;;;14.97;14.27;;;24.40;99.90;;;;;;5087832;28;20896;-69
2023/06/08 08:24:07;;;;;;;15.73;14.60;;;24.60;99.90;;;;;;5091076;28;20559;-68
2023/06/08 08:26:34;;;;;;;16.40;15.40;;;25.30;99.90;;;;;;5096083;28;20812;-69
2023/06/08 08:29:01;;;;;;;15.47;14.77;;;25.60;99.90;;;;;;5096158;28;20475;-68
2023/06/08 08:31:30;;;;;;;15.87;15.10;;;25.90;99.90;;;;;;5101562;28;20458;-68
2023/06/08 08:33:57;;;;;;;15.60;14.70;;;26.40;99.90;;;;;;5100940;27;20462;-68
2023/06/08 08:36:24;;;;;;;15.17;14.47;;;26.60;99.90;;;;;;5099732;27;20473;-68
2023/06/08 08:38:51;;;;;;;15.27;14.57;;;26.30;99.90;;;;;;5112814;27;20465;-68
2023/06/08 08:41:20;;;;;;;17.00;16.00;;;26.00;99.90;;;;;;5098029;28;20457;-68
2023/06/08 08:43:51;;;;;;;16.80;16.00;;;26.00;99.90;;;;;;5109542;27;20468;-69
2023/06/08 08:46:21;;;;;;;15.90;15.20;;;26.10;99.90;;;;;;5113656;27;20452;-68
2023/06/08 08:48:53;;;;;;;15.67;14.97;;;26.30;99.90;;;;;;5115491;27;20543;-69
2023/06/08 08:51:20;;;;;;;15.47;14.77;;;26.70;99.90;;;;;;5087983;27;20582;-68
2023/06/08 08:53:50;;;;;;;18.37;17.27;;;27.00;99.90;;;;;;5100181;27;20522;-69
2023/06/08 08:56:21;;;;;;;17.40;16.40;;;27.50;99.90;;;;;;5091250;27;20473;-68
2023/06/08 08:58:50;;;;;;;16.80;16.00;;;27.60;99.90;;;;;;5106001;27;21133;-67
2023/06/08 09:01:18;;;;;;;15.60;14.90;;;27.20;99.90;;;;;;5100306;27;20884;-67
2023/06/08 09:03:46;;;;;;;16.50;15.80;;;27.60;99.90;;;;;;5112006;27;20453;-68
2023/06/08 09:06:14;;;;;;;18.23;17.33;;;27.10;99.90;;;;;;5125977;27;20472;-68
2023/06/08 09:08:42;;;;;;;17.90;17.00;;;27.20;99.90;;;;;;5111300;27;20863;-67
2023/06/08 09:11:10;;;;;;;16.30;15.60;;;27.20;99.90;;;;;;5098469;27;20886;-69
2023/06/08 09:13:39;;;;;;;16.27;15.57;;;27.40;99.90;;;;;;5096255;27;21017;-68
2023/06/08 09:16:10;;;;;;;18.27;16.97;;;27.80;99.90;;;;;;5116926;27;20487;-68
2023/06/08 09:18:37;;;;;;;16.80;16.00;;;28.30;99.90;;;;;;5112683;27;20461;-67
2023/06/08 09:21:22;;;;;;;16.50;15.70;;;28.40;99.90;;;;;;5113885;27;20463;-68
2023/06/08 09:24:08;;;;;;;16.20;15.40;;;28.40;99.90;;;;;;5098957;27;20994;-68
2023/06/08 09:26:36;;;;;;;17.60;16.70;;;27.60;99.90;;;;;;5100398;27;20944;-68
2023/06/08 09:29:04;;;;;;;16.73;15.80;;;27.50;99.90;;;;;;5100562;28;20457;-68
2023/06/08 09:31:31;;;;;;;16.20;15.47;;;28.00;99.90;;;;;;5100584;27;20509;-68
2023/06/08 09:34:06;;;;;;;17.43;16.37;;;28.30;99.90;;;;;;5120892;27;20844;-69
2023/06/08 09:36:37;;;;;;;16.20;15.50;;;28.40;99.90;;;;;;5109421;27;20449;-69
2023/06/08 09:39:05;;;;;;;20.57;18.50;;;28.20;99.90;;;;;;5110347;27;20464;-69
2023/06/08 09:41:33;;;;;;;16.03;15.33;;;28.10;99.90;;;;;;5101781;27;20491;-69
2023/06/08 09:44:01;;;;;;;16.73;16.03;;;28.80;99.90;;;;;;5119502;27;20465;-69
2023/06/08 09:46:38;;;;;;;17.33;16.53;;;29.70;99.90;;;;;;5108305;27;20453;-69
2023/06/08 09:49:07;;;;;;;18.60;17.67;;;29.90;99.90;;;;;;5113215;27;20544;-69
2023/06/08 09:51:37;;;;;;;17.93;17.10;;;29.60;99.90;;;;;;5124437;27;20457;-68
2023/06/08 09:54:05;;;;;;;16.20;15.50;;;29.40;99.90;;;;;;5122241;27;20476;-69
2023/06/08 09:56:34;;;;;;;16.80;15.97;;;29.60;99.90;;;;;;5089038;27;20510;-69
2023/06/08 09:59:07;;;;;;;19.40;17.70;;;29.80;99.90;;;;;;5109731;27;20465;-69
2023/06/08 10:01:45;;;;;;;16.27;15.57;;;30.60;99.90;;;;;;5107633;27;20462;-69
2023/06/08 10:04:21;;;;;;;16.70;15.90;;;30.90;99.90;;;;;;5120654;27;20468;-69
2023/06/08 10:06:56;;;;;;;17.50;16.43;;;31.00;99.90;;;;;;5125635;27;21086;-70
2023/06/08 10:09:28;;;;;;;18.10;17.17;;;31.20;99.90;;;;;;5117133;27;20452;-69
2023/06/08 10:11:57;;;;;;;17.87;16.97;;;30.50;99.90;;;;;;5102647;27;20554;-69
2023/06/08 10:14:26;;;;;;;15.87;15.17;;;29.80;99.90;;;;;;5101346;27;21019;-70
2023/06/08 10:16:53;;;;;;;15.73;15.13;;;30.10;99.90;;;;;;5098513;27;20563;-69
2023/06/08 10:19:22;;;;;;;16.50;15.80;;;30.60;99.90;;;;;;5118907;27;20464;-70
2023/06/08 10:21:52;;;;;;;18.00;17.10;;;30.10;99.70;;;;;;5117177;27;20457;-69
2023/06/08 10:24:20;;;;;;;18.60;17.63;;;30.20;99.90;;;;;;5118095;27;20484;-69
2023/06/08 10:26:50;;;;;;;16.43;15.73;;;30.60;99.90;;;;;;5099874;27;20483;-70
2023/06/08 10:29:18;;;;;;;15.10;14.50;;;30.60;99.90;;;;;;5112759;27;20456;-70
2023/06/08 10:31:48;;;;;;;18.00;17.10;;;30.40;99.90;;;;;;5105172;27;20857;-69
2023/06/08 10:34:16;;;;;;;17.20;16.47;;;30.70;99.90;;;;;;5106100;27;20465;-68
2023/06/08 10:36:44;;;;;;;16.97;16.27;;;31.60;99.20;;;;;;5113624;27;20452;-68
2023/06/08 10:39:16;;;;;;;15.50;14.90;;;31.90;98.40;;;;;;5111435;27;20587;-69
2023/06/08 10:41:45;;;;;;;16.83;16.13;;;32.10;98.20;;;;;;5093651;27;20466;-69
2023/06/08 10:44:26;;;;;;;17.20;16.40;;;32.00;97.90;;;;;;5106660;27;20465;-70
2023/06/08 10:47:01;;;;;;;18.87;17.60;;;31.90;97.10;;;;;;5106034;27;20709;-69
2023/06/08 10:49:35;;;;;;;16.03;15.33;;;31.90;96.80;;;;;;5121804;27;20460;-67
2023/06/08 10:52:03;;;;;;;16.80;15.97;;;31.40;96.60;;;;;;5123741;27;20505;-67
2023/06/08 10:54:46;;;;;;;15.33;14.73;;;31.60;97.00;;;;;;5093986;27;20473;-67
2023/06/08 10:57:40;;;;;;;22.70;17.13;;;32.20;97.00;;;;;;5100985;28;20834;-67
2023/06/08 11:00:42;;;;;;;15.23;14.63;;;32.00;96.30;;;;;;5094413;27;20958;-67
2023/06/08 11:03:10;;;;;;;15.83;15.13;;;31.50;97.50;;;;;;5105058;27;20504;-67
2023/06/08 11:05:39;;;;;;;17.90;16.70;;;31.60;96.70;;;;;;5110983;27;20976;-66
2023/06/08 11:08:07;;;;;;;15.87;15.17;;;31.80;96.20;;;;;;5105574;27;20470;-68
2023/06/08 11:10:38;;;;;;;16.03;15.37;;;31.30;96.90;;;;;;5108241;27;21300;-68
2023/06/08 11:13:05;;;;;;;15.73;15.03;;;32.10;96.90;;;;;;5108538;27;20452;-66
2023/06/08 11:15:35;;;;;;;17.63;16.83;;;32.60;95.40;;;;;;5103105;27;20964;-67
2023/06/08 11:18:03;;;;;;;17.50;16.63;;;32.50;95.40;;;;;;5091018;28;20461;-67
2023/06/08 11:20:32;;;;;;;15.10;14.50;;;32.70;94.40;;;;;;5094115;28;20469;-67
2023/06/08 11:23:02;;;;;;;16.00;15.30;;;32.40;94.30;;;;;;5099537;27;20491;-69
2023/06/08 11:25:30;;;;;;;17.70;16.60;;;32.00;94.20;;;;;;5103292;27;20981;-67
2023/06/08 11:27:58;;;;;;;17.97;17.20;;;32.20;93.40;;;;;;5104805;27;20830;-68
2023/06/08 11:30:27;;;;;;;15.60;15.00;;;32.60;93.80;;;;;;5110589;27;20465;-67
2023/06/08 11:32:56;;;;;;;17.03;16.23;;;33.80;92.80;;;;;;5113461;27;20537;-67
2023/06/08 11:35:23;;;;;;;17.93;16.63;;;34.00;91.40;;;;;;5121252;27;20488;-67
2023/06/08 11:37:50;;;;;;;16.67;15.87;;;34.20;91.90;;;;;;5098246;28;20480;-66
2023/06/08 11:40:17;;;;;;;15.93;15.23;;;33.40;91.30;;;;;;5111383;27;20980;-68
2023/06/08 11:42:45;;;;;;;17.13;16.23;;;33.30;91.50;;;;;;5099728;28;21045;-67
2023/06/08 11:45:15;;;;;;;15.73;15.03;;;33.20;90.70;;;;;;5101792;27;20457;-67
2023/06/08 11:47:43;;;;;;;15.37;14.77;;;33.60;91.00;;;;;;5100457;27;20469;-67
2023/06/08 11:50:11;;;;;;;14.70;14.10;;;33.30;91.70;;;;;;5105441;27;21277;-67
2023/06/08 11:52:41;;;;;;;14.83;14.23;;;33.60;90.70;;;;;;5099422;27;20493;-67
2023/06/08 11:55:13;;;;;;;15.63;14.83;;;33.80;91.40;;;;;;5103731;27;20469;-67
2023/06/08 11:57:41;;;;;;;16.00;15.40;;;33.90;89.70;;;;;;5098280;27;20841;-66
2023/06/08 12:00:12;;;;;;;15.93;15.33;;;34.50;89.00;;;;;;5099890;27;20452;-67
2023/06/08 12:02:41;;;;;;;16.40;15.50;;;34.70;86.60;;;;;;5089679;28;20485;-66
2023/06/08 12:05:15;;;;;;;16.43;15.73;;;34.10;86.50;;;;;;5104517;27;20465;-67
2023/06/08 12:07:54;;;;;;;16.43;15.63;;;32.70;89.40;;;;;;5099162;28;20461;-67
2023/06/08 12:10:21;;;;;;;16.83;15.93;;;31.60;91.00;;;;;;5105623;27;20500;-67
2023/06/08 12:12:49;;;;;;;17.67;16.20;;;31.60;90.90;;;;;;5106444;28;20474;-66
2023/06/08 12:15:16;;;;;;;15.70;15.10;;;32.60;91.70;;;;;;5105473;27;21011;-67
2023/06/08 12:17:47;;;;;;;15.80;15.10;;;32.20;90.30;;;;;;5103196;28;20453;-67
2023/06/08 12:20:17;;;;;;;16.47;15.67;;;32.40;91.50;;;;;;5097936;28;20864;-67
2023/06/08 12:22:45;;;;;;;16.33;15.63;;;32.90;90.90;;;;;;5089471;28;20484;-67
2023/06/08 12:25:12;;;;;;;17.37;16.57;;;33.60;87.90;;;;;;5105639;28;20556;-67
2023/06/08 12:27:39;;;;;;;16.60;15.83;;;34.00;86.50;;;;;;5106067;28;20452;-67
2023/06/08 12:30:08;;;;;;;15.23;14.63;;;33.70;86.00;;;;;;5103102;28;20456;-67
2023/06/08 12:32:35;;;;;;;15.13;14.53;;;33.60;87.90;;;;;;5105405;28;20460;-66
2023/06/08 12:35:05;;;;;;;14.40;13.80;;;34.40;85.50;;;;;;5107580;28;20479;-67
2023/06/08 12:37:31;;;;;;;16.43;15.57;;;34.60;86.70;;;;;;5098165;28;20449;-65
2023/06/08 12:39:58;;;;;;;17.87;16.63;;;34.20;84.60;;;;;;5101234;28;20469;-65
2023/06/08 12:42:25;;;;;;;15.67;14.97;;;33.90;84.90;;;;;;5099783;28;20457;-66
2023/06/08 12:44:54;;;;;;;15.30;14.67;;;34.00;86.20;;;;;;5102780;28;20461;-67